EGNR Airport Information

Runway Information
Runway 05 Length 6702 ft width 148 ft
Elevation 31 ft Threshold 984 ft Heading 41
Runway 23 Length 6702 ft Width 148 ft
Elevation 17 ft Threshold 984 ft Heading 221
Airport Frequencies
Type APP Name APP Frequency 123.35 MHZ
Type TWR Name TWR Frequency 124.95 MHZ
Airport Navaids
Airport Weather Information & NOTAM
ADDS - METARS form results

(0845 UTC 25 April 2019)
Data provider http://aviationweather.gov/metar/data/
 
METAR text: EGNR 250820Z 13013KT 9999 FEW015 SCT025 12/08 Q0994
Conditions at: EGNR (HAWARDEN (AUT) , GB) observed 0820 UTC 25 April 2019
Temperature: 12.0°C (54°F)
Dewpoint: 8.0°C (46°F) [RH = 76%]
Pressure (altimeter): 29.35 inches Hg (994.0 mb)
Winds: from the SE (130 degrees) at 15 MPH (13 knots; 6.7 m/s)
Visibility: 6 or more miles (10+ km)
Ceiling: at least 12,000 feet AGL
Clouds: few clouds at 1500 feet AGL
scattered clouds at 2500 feet AGL
Weather: no significant weather observed at this time

METAR text: EGNR 250750Z 12011KT 9000 FEW015 SCT030 11/09 Q0994
Conditions at: EGNR (HAWARDEN (AUT) , GB) observed 0750 UTC 25 April 2019
Temperature: 11.0°C (52°F)
Dewpoint: 9.0°C (48°F) [RH = 87%]
Pressure (altimeter): 29.35 inches Hg (994.0 mb)
Winds: from the ESE (120 degrees) at 13 MPH (11 knots; 5.7 m/s)
Visibility: 6 miles ( 9 km)
Ceiling: at least 12,000 feet AGL
Clouds: few clouds at 1500 feet AGL
scattered clouds at 3000 feet AGL
Weather: no significant weather observed at this time

Forecast for: EGNR (HAWARDEN (AUT) , GB)
Text: TAF EGNR 250805Z 2509/2518 15014KT 9999 SCT030
Forecast period: 0900 to 1800 UTC 25 April 2019
Forecast type: FROM: standard forecast or significant change
Winds: from the SSE (150 degrees) at 16 MPH (14 knots; 7.2 m/s)
Visibility: 6 or more miles 10+ km)
Ceiling: at least 12,000 feet AGL
Clouds: scattered clouds at 3000 feet AGL
Weather: no significant weather forecast for this period
Text: TEMPO 2509/2518 6000 SHRA
Forecast period: 0900 to 1800 UTC 25 April 2019
Forecast type: TEMPORARY: The following changes expected for less than half the time period
Visibility: 4 miles (6 km)
Ceiling: unknown
Clouds: missing
Weather: SHRA  (rain showers)
Text: PROB40
Forecast period: 1000 to 1700 UTC 25 April 2019
Forecast type: TEMPORARY: The following changes expected for less than half the time period
Winds: from the SSE (160 degrees) at 21 MPH (18 knots; 9.3 m/s)
gusting to 32 MPH (28 knots; 14.4 m/s)
Visibility: 1.86 miles (2.99 km)
Ceiling: 1400 feet AGL
Clouds: broken clouds at 1400 feet AGL
broken clouds at 3500 feet AGL
Weather: +SHRA TSGR  (heavy rain showers, hail associated with thunderstorm(s))